createdAt,value
2016-08-16T00:00:51.822Z,11.4
2016-08-16T00:01:51.812Z,11.35
2016-08-16T00:02:51.807Z,11.35
2016-08-16T00:03:51.804Z,11.32
2016-08-16T00:04:51.799Z,11.4
2016-08-16T00:05:51.790Z,11.33
2016-08-16T00:06:51.781Z,11.29
2016-08-16T00:07:51.784Z,11.32
2016-08-16T00:08:51.772Z,11.32
2016-08-16T00:09:51.775Z,11.36
2016-08-16T00:10:51.770Z,11.28
2016-08-16T00:11:51.765Z,11.37
2016-08-16T00:12:51.757Z,11.37
2016-08-16T00:13:51.746Z,11.27
2016-08-16T00:14:51.741Z,11.24
2016-08-16T00:15:51.751Z,11.33
2016-08-16T00:16:51.728Z,11.29
2016-08-16T00:17:51.829Z,11.27
2016-08-16T00:18:53.586Z,11.29
2016-08-16T00:20:52.013Z,11.29
2016-08-16T00:21:51.707Z,11.24
2016-08-16T00:22:52.598Z,11.29
2016-08-16T00:23:52.389Z,11.36
2016-08-16T00:24:52.173Z,11.32
2016-08-16T00:25:51.682Z,11.33
2016-08-16T00:26:51.739Z,11.32
2016-08-16T00:27:53.185Z,11.28
2016-08-16T00:28:53.199Z,11.24
2016-08-16T00:29:53.043Z,11.33
2016-08-16T00:30:52.795Z,11.28
2016-08-16T00:31:52.234Z,11.27
2016-08-16T00:32:51.643Z,11.25
2016-08-16T00:33:51.640Z,11.32
2016-08-16T00:34:51.793Z,11.36
2016-08-16T00:35:51.630Z,11.25
2016-08-16T00:36:51.628Z,11.28
2016-08-16T00:37:51.620Z,11.25
2016-08-16T00:38:51.612Z,11.28
2016-08-16T00:39:51.611Z,11.25
2016-08-16T00:40:51.610Z,11.28
2016-08-16T00:41:51.592Z,11.29
2016-08-16T00:42:52.275Z,11.29
2016-08-16T00:43:51.584Z,11.32
2016-08-16T00:44:51.574Z,11.27
2016-08-16T00:45:51.575Z,11.24
2016-08-16T00:46:51.568Z,11.18
2016-08-16T00:47:51.559Z,11.27
2016-08-16T00:48:51.549Z,11.24
2016-08-16T00:49:51.550Z,11.28
2016-08-16T00:50:51.542Z,11.21
2016-08-16T00:51:51.534Z,11.19
2016-08-16T00:52:51.537Z,11.21
2016-08-16T00:53:51.541Z,11.21
2016-08-16T00:54:51.522Z,11.15
2016-08-16T00:55:51.515Z,11.15
2016-08-16T00:56:51.508Z,11.07
2016-08-16T00:58:51.701Z,11.11
2016-08-16T01:00:51.588Z,11.17
2016-08-16T01:02:51.471Z,11.07
2016-08-16T01:03:51.669Z,11.11
2016-08-16T01:04:51.461Z,11.07
2016-08-16T01:05:51.457Z,11.07
2016-08-16T01:08:06.363Z,11.15
2016-08-16T01:08:51.902Z,11.03
2016-08-16T01:09:51.427Z,11.1
2016-08-16T01:10:52.583Z,11.11
2016-08-16T01:11:51.420Z,11.1
2016-08-16T01:12:51.409Z,11.11
2016-08-16T01:13:51.578Z,11.04
2016-08-16T01:14:51.419Z,11.02
2016-08-16T01:15:51.407Z,11.04
2016-08-16T01:16:51.394Z,11.03
2016-08-16T01:17:51.382Z,10.94
2016-08-16T01:18:51.406Z,10.91
2016-08-16T01:19:51.375Z,11.06
2016-08-16T01:20:51.376Z,11.03
2016-08-16T01:21:51.361Z,10.92
2016-08-16T01:22:51.360Z,11.03
2016-08-16T01:23:51.350Z,10.89
2016-08-16T01:24:51.344Z,11.09
2016-08-16T01:25:51.343Z,11.07
2016-08-16T01:26:51.473Z,10.92
2016-08-16T01:27:51.337Z,10.94
2016-08-16T01:28:51.327Z,11.02
2016-08-16T01:29:51.322Z,11.02
2016-08-16T01:30:52.022Z,11.03
2016-08-16T01:31:51.308Z,10.99
2016-08-16T01:32:51.299Z,10.92
2016-08-16T01:33:51.300Z,10.96
2016-08-16T01:34:51.293Z,10.99
2016-08-16T01:35:51.490Z,10.89
2016-08-16T01:37:52.850Z,10.86
2016-08-16T01:38:53.021Z,10.86
2016-08-16T01:39:52.984Z,10.91
2016-08-16T01:40:51.791Z,10.92
2016-08-16T01:41:51.962Z,10.86
2016-08-16T01:42:51.245Z,10.88
2016-08-16T01:43:51.238Z,10.86
2016-08-16T01:44:51.233Z,10.85
2016-08-16T01:45:52.701Z,10.81
2016-08-16T01:46:53.407Z,10.71
2016-08-16T01:47:51.772Z,10.7
2016-08-16T01:48:52.154Z,10.71
2016-08-16T01:49:51.351Z,10.68
2016-08-16T01:50:51.200Z,10.73
2016-08-16T01:51:51.193Z,10.76
2016-08-16T01:52:51.188Z,10.76
2016-08-16T01:53:51.184Z,10.73
2016-08-16T01:54:51.891Z,10.7
2016-08-16T01:55:51.176Z,10.71
2016-08-16T01:56:51.180Z,10.64
2016-08-16T01:57:51.154Z,10.66
2016-08-16T01:58:51.149Z,10.63
2016-08-16T01:59:51.145Z,10.71
2016-08-16T02:00:51.136Z,10.63
2016-08-16T02:01:51.143Z,10.66
2016-08-16T02:02:51.127Z,10.63
2016-08-16T02:03:51.123Z,10.6
2016-08-16T02:04:51.120Z,10.59
2016-08-16T02:05:51.111Z,10.64
2016-08-16T02:06:51.106Z,10.6
2016-08-16T02:07:51.103Z,10.63
2016-08-16T02:08:51.091Z,10.63
2016-08-16T02:09:51.092Z,10.56
2016-08-16T02:10:51.075Z,10.59
2016-08-16T02:11:51.087Z,10.52
2016-08-16T02:12:51.068Z,10.56
2016-08-16T02:13:51.061Z,10.59
2016-08-16T02:14:51.051Z,10.55
2016-08-16T02:16:51.041Z,10.51
2016-08-16T02:18:51.880Z,10.53
2016-08-16T02:19:51.028Z,10.56
2016-08-16T02:20:52.015Z,10.56
2016-08-16T02:21:51.016Z,10.56
2016-08-16T02:22:51.110Z,10.53
2016-08-16T02:23:51.000Z,10.6
2016-08-16T02:25:51.387Z,10.51
2016-08-16T02:26:51.134Z,10.55
2016-08-16T02:28:50.969Z,10.53
2016-08-16T02:29:52.114Z,10.51
2016-08-16T02:30:50.961Z,10.53
2016-08-16T02:31:50.951Z,10.6
2016-08-16T02:32:50.943Z,10.55
2016-08-16T02:33:50.939Z,10.56
2016-08-16T02:34:50.932Z,10.59
2016-08-16T02:35:50.925Z,10.55
2016-08-16T02:36:50.923Z,10.53
2016-08-16T02:37:50.927Z,10.61
2016-08-16T02:38:50.911Z,10.63
2016-08-16T02:39:50.907Z,10.51
2016-08-16T02:40:50.904Z,10.6
2016-08-16T02:41:53.097Z,10.59
2016-08-16T02:42:50.889Z,10.48
2016-08-16T02:43:50.878Z,10.53
2016-08-16T02:44:50.876Z,10.53
2016-08-16T02:45:50.867Z,10.63
2016-08-16T02:46:50.861Z,10.6
2016-08-16T02:47:50.857Z,10.61
2016-08-16T02:48:50.842Z,10.53
2016-08-16T02:49:50.848Z,10.6
2016-08-16T02:50:50.843Z,10.56
2016-08-16T02:51:50.824Z,10.66
2016-08-16T02:52:50.823Z,10.6
2016-08-16T02:53:50.811Z,10.67
2016-08-16T02:54:52.334Z,10.68
2016-08-16T02:56:52.488Z,10.68
2016-08-16T02:57:53.180Z,10.61
2016-08-16T02:58:50.995Z,10.7
2016-08-16T02:59:50.779Z,10.6
2016-08-16T03:00:50.773Z,10.55
2016-08-16T03:01:50.774Z,10.6
2016-08-16T03:02:50.762Z,10.66
2016-08-16T03:03:50.760Z,10.61
2016-08-16T03:04:51.854Z,10.63
2016-08-16T03:05:51.129Z,10.64
2016-08-16T03:06:52.195Z,10.64
2016-08-16T03:07:50.735Z,10.67
2016-08-16T03:08:51.557Z,10.68
2016-08-16T03:09:50.721Z,10.66
2016-08-16T03:10:50.837Z,10.66
2016-08-16T03:11:50.712Z,10.64
2016-08-16T03:12:50.703Z,10.67
2016-08-16T03:13:50.702Z,10.61
2016-08-16T03:14:50.688Z,10.61
2016-08-16T03:15:50.693Z,10.66
2016-08-16T03:16:50.675Z,10.67
2016-08-16T03:17:50.735Z,10.66
2016-08-16T03:18:50.671Z,10.66
2016-08-16T03:19:50.656Z,10.56
2016-08-16T03:20:50.661Z,10.64
2016-08-16T03:21:50.658Z,10.6
2016-08-16T03:22:51.745Z,10.61
2016-08-16T03:23:50.645Z,10.59
2016-08-16T03:24:50.633Z,10.56
2016-08-16T03:25:50.625Z,10.52
2016-08-16T03:26:50.616Z,10.53
2016-08-16T03:27:50.613Z,10.53
2016-08-16T03:28:50.612Z,10.52
2016-08-16T03:29:50.600Z,10.56
2016-08-16T03:30:50.794Z,10.61
2016-08-16T03:31:50.586Z,10.52
2016-08-16T03:32:50.581Z,10.52
2016-08-16T03:33:51.430Z,10.53
2016-08-16T03:34:50.923Z,10.51
2016-08-16T03:37:05.725Z,10.45
2016-08-16T03:37:50.558Z,10.41
2016-08-16T03:38:51.149Z,10.47
2016-08-16T03:39:51.549Z,10.48
2016-08-16T03:40:50.537Z,10.52
2016-08-16T03:41:50.531Z,10.51
2016-08-16T03:43:05.435Z,10.61
2016-08-16T03:43:51.972Z,10.6
2016-08-16T03:44:51.313Z,10.67
2016-08-16T03:45:51.210Z,10.61
2016-08-16T03:46:50.491Z,10.73
2016-08-16T03:47:50.493Z,10.78
2016-08-16T03:48:50.486Z,10.91
2016-08-16T03:49:50.785Z,10.92
2016-08-16T03:50:50.474Z,11.03
2016-08-16T03:51:50.469Z,11.06
2016-08-16T03:52:50.465Z,11.11
2016-08-16T03:53:50.467Z,11.21
2016-08-16T03:54:50.452Z,11.22
2016-08-16T03:55:50.447Z,11.33
2016-08-16T03:56:50.445Z,11.37
2016-08-16T03:57:50.433Z,11.4
2016-08-16T03:58:50.445Z,11.51
2016-08-16T03:59:50.420Z,11.57
2016-08-16T04:00:50.416Z,11.7
2016-08-16T04:01:51.505Z,11.75
2016-08-16T04:02:50.403Z,11.73
2016-08-16T04:03:50.391Z,11.82
2016-08-16T04:04:50.388Z,11.88
2016-08-16T04:05:50.392Z,11.85
2016-08-16T04:06:50.382Z,11.82
2016-08-16T04:07:50.380Z,11.83
2016-08-16T04:08:50.374Z,11.79
2016-08-16T04:09:50.363Z,11.65
2016-08-16T04:10:50.359Z,11.67
2016-08-16T04:11:50.352Z,11.73
2016-08-16T04:12:50.850Z,11.64
2016-08-16T04:14:52.059Z,11.57
2016-08-16T04:15:50.338Z,11.55
2016-08-16T04:16:51.271Z,11.52
2016-08-16T04:17:51.008Z,11.57
2016-08-16T04:18:50.316Z,11.58
2016-08-16T04:19:50.649Z,11.57
2016-08-16T04:20:50.303Z,11.58
2016-08-16T04:21:50.299Z,11.6
2016-08-16T04:22:50.562Z,11.65
2016-08-16T04:23:50.537Z,11.72
2016-08-16T04:24:52.394Z,11.83
2016-08-16T04:25:50.670Z,11.83
2016-08-16T04:26:50.966Z,11.95
2016-08-16T04:27:50.265Z,12.04
2016-08-16T04:28:50.947Z,12.23
2016-08-16T04:29:50.266Z,12.32
2016-08-16T04:30:50.255Z,12.6
2016-08-16T04:31:50.243Z,12.75
2016-08-16T04:32:50.239Z,12.97
2016-08-16T04:33:50.239Z,13.14
2016-08-16T04:34:50.231Z,13.39
2016-08-16T04:35:50.225Z,13.71
2016-08-16T04:36:50.225Z,14.06
2016-08-16T04:37:50.218Z,14.18
2016-08-16T04:38:50.220Z,14.27
2016-08-16T04:39:50.212Z,14.39
2016-08-16T04:40:50.205Z,14.54
2016-08-16T04:41:50.908Z,14.57
2016-08-16T04:42:50.198Z,14.57
2016-08-16T04:43:50.197Z,14.7
2016-08-16T04:44:50.197Z,14.6
2016-08-16T04:45:50.186Z,14.72
2016-08-16T04:46:50.181Z,14.72
2016-08-16T04:47:50.182Z,14.7
2016-08-16T04:48:50.206Z,14.86
2016-08-16T04:49:50.173Z,14.94
2016-08-16T04:50:50.165Z,15.01
2016-08-16T04:51:50.167Z,15.06
2016-08-16T04:53:05.488Z,15.2
2016-08-16T04:54:05.578Z,15.28
2016-08-16T04:54:50.310Z,15.31
2016-08-16T04:56:50.656Z,15.47
2016-08-16T04:57:50.154Z,15.78
2016-08-16T04:58:50.164Z,15.93
2016-08-16T04:59:50.148Z,16.01
2016-08-16T05:00:50.147Z,16.2
2016-08-16T05:02:50.386Z,16.71
2016-08-16T05:03:50.147Z,17
2016-08-16T05:04:51.089Z,17.16
2016-08-16T05:05:50.885Z,17.43
2016-08-16T05:06:50.147Z,17.77
2016-08-16T05:07:50.138Z,18.12
2016-08-16T05:08:50.125Z,18.32
2016-08-16T05:09:50.136Z,18.7
2016-08-16T05:10:50.127Z,18.94
2016-08-16T05:11:50.133Z,19.23
2016-08-16T05:12:50.134Z,19.62
2016-08-16T05:13:50.131Z,19.95
2016-08-16T05:14:50.139Z,20.16
2016-08-16T05:15:50.133Z,20.41
2016-08-16T05:16:50.137Z,20.67
2016-08-16T05:17:50.282Z,21.03
2016-08-16T05:18:50.132Z,21.29
2016-08-16T05:19:50.130Z,21.56
2016-08-16T05:20:50.136Z,21.83
2016-08-16T05:21:50.145Z,22.15
2016-08-16T05:22:50.197Z,22.43
2016-08-16T05:23:50.145Z,22.86
2016-08-16T05:24:50.150Z,23.04
2016-08-16T05:25:50.152Z,23.48
2016-08-16T05:26:50.152Z,23.8
2016-08-16T05:27:50.173Z,24.12
2016-08-16T05:28:50.168Z,24.3
2016-08-16T05:29:50.170Z,24.43
2016-08-16T05:30:50.174Z,24.57
2016-08-16T05:31:51.244Z,24.55
2016-08-16T05:32:51.602Z,24.49
2016-08-16T05:33:50.466Z,24.5
2016-08-16T05:34:52.360Z,24.42
2016-08-16T05:35:50.203Z,24.32
2016-08-16T05:36:50.206Z,24.22
2016-08-16T05:37:50.213Z,24.09
2016-08-16T05:38:50.223Z,24.05
2016-08-16T05:39:50.229Z,23.93
2016-08-16T05:40:51.746Z,23.8
2016-08-16T05:41:50.839Z,23.68
2016-08-16T05:42:50.241Z,23.55
2016-08-16T05:43:52.185Z,23.51
2016-08-16T05:44:50.251Z,23.36
2016-08-16T05:45:50.248Z,23.2
2016-08-16T05:46:50.250Z,23.22
2016-08-16T05:47:50.252Z,23.13
2016-08-16T05:48:50.326Z,23.17
2016-08-16T05:49:50.272Z,23.2
2016-08-16T05:50:50.275Z,23.25
2016-08-16T05:51:50.281Z,23.42
2016-08-16T05:52:50.280Z,23.66
2016-08-16T05:53:50.290Z,23.78
2016-08-16T05:54:50.290Z,23.91
2016-08-16T05:55:50.292Z,24.08
2016-08-16T05:56:50.304Z,24.22
2016-08-16T05:57:50.300Z,24.37
2016-08-16T05:58:50.316Z,24.39
2016-08-16T05:59:50.325Z,24.34
2016-08-16T06:00:50.320Z,24.4
2016-08-16T06:01:50.322Z,24.43
2016-08-16T06:02:50.329Z,24.53
2016-08-16T06:03:50.334Z,24.52
2016-08-16T06:04:50.350Z,24.53
2016-08-16T06:05:50.344Z,24.49
2016-08-16T06:06:50.355Z,24.65
2016-08-16T06:07:50.355Z,24.67
2016-08-16T06:08:50.361Z,24.68
2016-08-16T06:09:50.365Z,24.61
2016-08-16T06:11:51.500Z,24.61
2016-08-16T06:12:50.986Z,24.52
2016-08-16T06:13:50.387Z,24.46
2016-08-16T06:14:50.394Z,24.45
2016-08-16T06:15:50.403Z,24.37
2016-08-16T06:16:50.503Z,24.37
2016-08-16T06:17:50.420Z,24.37
2016-08-16T06:18:51.149Z,24.39
2016-08-16T06:19:51.274Z,24.31
2016-08-16T06:21:50.688Z,24.37
2016-08-16T06:22:50.444Z,24.32
2016-08-16T06:23:50.441Z,24.27
2016-08-16T06:24:50.445Z,24.28
2016-08-16T06:25:50.470Z,24.25
2016-08-16T06:26:50.466Z,24.25
2016-08-16T06:27:50.467Z,24.25
2016-08-16T06:28:50.473Z,24.31
2016-08-16T06:29:50.476Z,24.3
2016-08-16T06:30:50.481Z,24.25
2016-08-16T06:31:50.487Z,24.08
2016-08-16T06:32:50.492Z,24.08
2016-08-16T06:33:50.497Z,24
2016-08-16T06:34:50.502Z,23.83
2016-08-16T06:35:50.504Z,23.75
2016-08-16T06:36:50.517Z,23.6
2016-08-16T06:37:50.520Z,23.5
2016-08-16T06:38:50.521Z,23.47
2016-08-16T06:39:50.533Z,23.36
2016-08-16T06:40:50.542Z,23.28
2016-08-16T06:41:50.543Z,23.2
2016-08-16T06:42:50.540Z,23.1
2016-08-16T06:43:50.549Z,23.12
2016-08-16T06:44:50.549Z,23.12
2016-08-16T06:45:50.561Z,23.13
2016-08-16T06:46:50.559Z,23.16
2016-08-16T06:47:51.271Z,23.19
2016-08-16T06:48:50.569Z,23.25
2016-08-16T06:49:52.099Z,23.23
2016-08-16T06:50:51.669Z,23.17
2016-08-16T06:51:51.201Z,23.19
2016-08-16T06:52:50.612Z,23.22
2016-08-16T06:53:50.593Z,23.42
2016-08-16T06:54:50.596Z,23.43
2016-08-16T06:55:50.609Z,23.51
2016-08-16T06:56:50.622Z,23.54
2016-08-16T06:57:50.616Z,23.58
2016-08-16T06:58:52.140Z,23.51
2016-08-16T06:59:50.665Z,23.61
2016-08-16T07:00:50.635Z,23.53
2016-08-16T07:01:50.635Z,23.57
2016-08-16T07:02:50.656Z,23.47
2016-08-16T07:03:50.654Z,23.48
2016-08-16T07:04:50.661Z,23.5
2016-08-16T07:05:50.647Z,23.53
2016-08-16T07:06:50.654Z,23.69
2016-08-16T07:07:50.659Z,23.66
2016-08-16T07:08:50.663Z,23.79
2016-08-16T07:09:50.675Z,23.85
2016-08-16T07:10:50.669Z,23.85
2016-08-16T07:11:50.676Z,23.84
2016-08-16T07:12:50.675Z,23.83
2016-08-16T07:13:50.680Z,23.78
2016-08-16T07:14:50.686Z,23.8
2016-08-16T07:15:50.695Z,23.84
2016-08-16T07:16:50.703Z,23.79
2016-08-16T07:17:52.752Z,23.8
2016-08-16T07:18:50.708Z,23.93
2016-08-16T07:19:50.710Z,24.05
2016-08-16T07:20:50.712Z,24.1
2016-08-16T07:21:50.730Z,24.28
2016-08-16T07:22:50.730Z,24.28
2016-08-16T07:23:50.731Z,24.28
2016-08-16T07:24:50.736Z,24.27
2016-08-16T07:25:50.753Z,24.27
2016-08-16T07:26:50.749Z,24.35
2016-08-16T07:27:50.768Z,24.46
2016-08-16T07:28:51.861Z,24.43
2016-08-16T07:29:52.121Z,24.49
2016-08-16T07:31:51.239Z,24.62
2016-08-16T07:32:50.796Z,24.46
2016-08-16T07:33:51.498Z,24.5
2016-08-16T07:34:50.803Z,24.53
2016-08-16T07:35:50.821Z,24.61
2016-08-16T07:36:50.832Z,24.69
2016-08-16T07:37:51.503Z,24.81
2016-08-16T07:38:51.590Z,25.08
2016-08-16T07:40:51.710Z,25.14
2016-08-16T07:41:51.031Z,24.95
2016-08-16T07:42:51.133Z,24.84
2016-08-16T07:43:50.885Z,24.77
2016-08-16T07:44:51.605Z,24.9
2016-08-16T07:45:50.921Z,25.18
2016-08-16T07:46:50.920Z,25.57
2016-08-16T07:47:50.942Z,26.09
2016-08-16T07:48:50.938Z,26.57
2016-08-16T07:49:50.953Z,26.87
2016-08-16T07:50:50.968Z,27.13
2016-08-16T07:51:50.986Z,27.29
2016-08-16T07:52:50.988Z,27.12
2016-08-16T07:53:51.007Z,26.66
2016-08-16T07:54:51.018Z,26.45
2016-08-16T07:55:51.027Z,26.58
2016-08-16T07:56:51.044Z,27.1
2016-08-16T07:57:51.052Z,27.29
2016-08-16T07:58:51.059Z,27.57
2016-08-16T07:59:51.078Z,27.78
2016-08-16T08:00:51.094Z,27.81
2016-08-16T08:01:51.101Z,28.04
2016-08-16T08:02:51.116Z,28.21
2016-08-16T08:03:51.133Z,28.44
2016-08-16T08:04:51.147Z,28.88
2016-08-16T08:05:51.158Z,29.27
2016-08-16T08:06:51.195Z,29.55
2016-08-16T08:07:51.689Z,29.48
2016-08-16T08:08:51.733Z,29
2016-08-16T08:09:51.928Z,28.25
2016-08-16T08:10:52.022Z,27.75
2016-08-16T08:11:51.671Z,27.27
2016-08-16T08:12:51.263Z,27
2016-08-16T08:13:51.275Z,26.87
2016-08-16T08:14:51.285Z,26.69
2016-08-16T08:15:51.295Z,26.5
2016-08-16T08:17:52.740Z,25.72
2016-08-16T08:18:51.334Z,25.43
2016-08-16T08:19:51.908Z,25.32
2016-08-16T08:20:51.896Z,25.13
2016-08-16T08:21:51.369Z,24.84
2016-08-16T08:22:51.384Z,24.65
2016-08-16T08:23:51.390Z,24.49
2016-08-16T08:24:51.401Z,24.52
2016-08-16T08:25:51.411Z,24.71
2016-08-16T08:26:51.418Z,25.13
2016-08-16T08:27:51.444Z,25.52
2016-08-16T08:28:51.436Z,25.82
2016-08-16T08:29:51.451Z,25.82
2016-08-16T08:30:51.453Z,25.6
2016-08-16T08:31:51.470Z,25.65
2016-08-16T08:32:51.483Z,25.82
2016-08-16T08:33:51.494Z,26.05
2016-08-16T08:34:51.501Z,26.39
2016-08-16T08:35:51.506Z,26.4
2016-08-16T08:36:51.515Z,26.32
2016-08-16T08:37:51.529Z,25.98
2016-08-16T08:38:51.540Z,25.7
2016-08-16T08:39:51.549Z,25.55
2016-08-16T08:40:52.271Z,25.58
2016-08-16T08:41:51.571Z,25.76
2016-08-16T08:42:51.576Z,25.97
2016-08-16T08:43:51.590Z,26.21
2016-08-16T08:44:51.593Z,26.4
2016-08-16T08:45:51.626Z,26.57
2016-08-16T08:47:06.535Z,26.75
2016-08-16T08:47:51.872Z,26.8
2016-08-16T08:48:52.585Z,26.82
2016-08-16T08:49:51.641Z,26.89
2016-08-16T08:50:52.402Z,26.69
2016-08-16T08:51:51.653Z,26.47
2016-08-16T08:52:51.662Z,26.37
2016-08-16T08:53:51.674Z,26.02
2016-08-16T08:54:51.680Z,25.9
2016-08-16T08:56:06.607Z,25.5
2016-08-16T08:56:52.450Z,25.35
2016-08-16T08:57:52.307Z,25.2
2016-08-16T08:58:51.721Z,25.13
2016-08-16T09:00:51.843Z,25.09
2016-08-16T09:01:52.036Z,25.14
2016-08-16T09:02:51.741Z,25.21
2016-08-16T09:03:51.751Z,25.38
2016-08-16T09:04:51.753Z,25.35
2016-08-16T09:05:51.764Z,25.4
2016-08-16T09:06:51.794Z,25.52
2016-08-16T09:07:51.775Z,25.52
2016-08-16T09:08:51.785Z,25.45
2016-08-16T09:09:51.791Z,25.36
2016-08-16T09:10:51.819Z,25.35
2016-08-16T09:11:51.804Z,25.15
2016-08-16T09:12:52.680Z,25.08
2016-08-16T09:13:51.824Z,25.09
2016-08-16T09:14:51.826Z,25.06
2016-08-16T09:15:51.837Z,24.96
2016-08-16T09:16:51.840Z,24.83
2016-08-16T09:17:51.853Z,24.73
2016-08-16T09:18:51.862Z,24.69
2016-08-16T09:19:51.858Z,24.77
2016-08-16T09:20:51.867Z,24.76
2016-08-16T09:21:51.867Z,24.67
2016-08-16T09:22:51.882Z,24.5
2016-08-16T09:23:51.887Z,24.31
2016-08-16T09:24:51.901Z,24.13
2016-08-16T09:26:53.425Z,24.1
2016-08-16T09:27:52.835Z,24.21
2016-08-16T09:28:51.919Z,24.24
2016-08-16T09:29:53.936Z,24
2016-08-16T09:30:52.896Z,23.65
2016-08-16T09:31:51.935Z,23.35
2016-08-16T09:32:51.939Z,23.2
2016-08-16T09:33:51.952Z,22.97
2016-08-16T09:35:52.860Z,22.64
2016-08-16T09:36:52.119Z,22.43
2016-08-16T09:37:53.282Z,22.37
2016-08-16T09:38:53.953Z,22.27
2016-08-16T09:39:53.344Z,22.37
2016-08-16T09:40:51.989Z,22.49
2016-08-16T09:41:52.280Z,22.51
2016-08-16T09:42:52.009Z,22.77
2016-08-16T09:43:52.001Z,23
2016-08-16T09:44:52.006Z,23.2
2016-08-16T09:45:52.015Z,23.43
2016-08-16T09:46:52.007Z,23.53
2016-08-16T09:47:52.022Z,23.76
2016-08-16T09:48:52.029Z,24.03
2016-08-16T09:49:52.027Z,24.12
2016-08-16T09:50:52.035Z,23.94
2016-08-16T09:51:52.039Z,23.66
2016-08-16T09:52:52.042Z,23.35
2016-08-16T09:53:52.055Z,23.07
2016-08-16T09:54:52.063Z,22.85
2016-08-16T09:55:52.054Z,22.65
2016-08-16T09:56:52.060Z,22.61
2016-08-16T09:57:52.062Z,22.58
2016-08-16T09:58:52.071Z,22.4
2016-08-16T09:59:52.068Z,22.46
2016-08-16T10:00:53.273Z,22.67
2016-08-16T10:01:52.079Z,22.76
2016-08-16T10:02:52.282Z,22.86
2016-08-16T10:03:52.094Z,23.07
2016-08-16T10:04:53.146Z,23.12
2016-08-16T10:05:52.900Z,23.13
2016-08-16T10:06:52.396Z,23.2
2016-08-16T10:08:52.253Z,22.88
2016-08-16T10:09:52.115Z,22.98
2016-08-16T10:10:52.115Z,23.09
2016-08-16T10:11:52.216Z,23.23
2016-08-16T10:12:52.127Z,23.38
2016-08-16T10:14:07.047Z,23.25
2016-08-16T10:15:52.492Z,22.98
2016-08-16T10:17:52.899Z,22.75
2016-08-16T10:18:52.203Z,22.62
2016-08-16T10:19:52.155Z,22.75
2016-08-16T10:20:52.150Z,22.98
2016-08-16T10:21:52.859Z,23.09
2016-08-16T10:22:52.162Z,23.38
2016-08-16T10:23:52.174Z,23.7
2016-08-16T10:24:52.167Z,23.83
2016-08-16T10:25:52.182Z,23.84
2016-08-16T10:26:52.176Z,23.78
2016-08-16T10:27:52.182Z,23.66
2016-08-16T10:28:52.183Z,23.48
2016-08-16T10:29:52.190Z,23.19
2016-08-16T10:30:52.191Z,23
2016-08-16T10:31:52.204Z,22.92
2016-08-16T10:32:52.196Z,22.88
2016-08-16T10:33:52.203Z,22.95
2016-08-16T10:34:52.218Z,22.95
2016-08-16T10:35:52.218Z,23.02
2016-08-16T10:36:52.222Z,23.2
2016-08-16T10:37:52.229Z,23.38
2016-08-16T10:38:52.227Z,23.57
2016-08-16T10:39:52.227Z,23.57
2016-08-16T10:40:52.233Z,23.66
2016-08-16T10:41:52.240Z,23.55
2016-08-16T10:42:52.248Z,23.54
2016-08-16T10:43:52.256Z,23.5
2016-08-16T10:44:53.772Z,23.46
2016-08-16T10:45:53.579Z,23.32
2016-08-16T10:46:52.980Z,23.25
2016-08-16T10:47:53.024Z,23.1
2016-08-16T10:48:52.828Z,23.2
2016-08-16T10:49:52.270Z,23.23
2016-08-16T10:50:52.549Z,23.33
2016-08-16T10:51:52.472Z,23.51
2016-08-16T10:52:52.277Z,23.58
2016-08-16T10:53:52.795Z,23.61
2016-08-16T10:54:53.066Z,23.68
2016-08-16T10:55:52.923Z,23.55
2016-08-16T10:56:53.355Z,23.65
2016-08-16T10:57:52.295Z,23.69
2016-08-16T10:58:52.992Z,23.8
2016-08-16T10:59:52.306Z,24.08
2016-08-16T11:00:52.307Z,24.15
2016-08-16T11:01:52.311Z,24.16
2016-08-16T11:02:52.317Z,24.16
2016-08-16T11:03:52.318Z,23.95
2016-08-16T11:04:52.328Z,23.87
2016-08-16T11:05:52.350Z,23.68
2016-08-16T11:06:52.337Z,23.65
2016-08-16T11:08:52.343Z,23.5
2016-08-16T11:09:52.352Z,23.5
2016-08-16T11:10:52.349Z,23.36
2016-08-16T11:11:52.355Z,23.28
2016-08-16T11:12:52.356Z,23.16
2016-08-16T11:13:52.360Z,23.23
2016-08-16T11:14:52.363Z,23.09
2016-08-16T11:15:52.367Z,23.07
2016-08-16T11:17:05.107Z,23.04
2016-08-16T11:17:52.382Z,23.16
2016-08-16T11:19:07.297Z,23.25
2016-08-16T11:20:05.113Z,23.47
2016-08-16T11:20:52.388Z,23.53
2016-08-16T11:21:52.397Z,23.66
2016-08-16T11:22:53.110Z,23.83
2016-08-16T11:25:07.131Z,23.66
2016-08-16T11:26:52.457Z,23.68
2016-08-16T11:27:52.413Z,23.54
2016-08-16T11:28:52.976Z,23.38
2016-08-16T11:29:52.425Z,23.17
2016-08-16T11:30:52.420Z,23
2016-08-16T11:31:52.424Z,22.95
2016-08-16T11:34:52.432Z,23.2
2016-08-16T11:35:52.939Z,23.22
2016-08-16T11:36:53.244Z,23.35
2016-08-16T11:37:52.452Z,23.42
2016-08-16T11:38:52.466Z,23.47
2016-08-16T11:39:52.450Z,23.43
2016-08-16T11:40:52.456Z,23.39
2016-08-16T11:41:52.454Z,23.43
2016-08-16T11:42:52.460Z,23.43
2016-08-16T11:43:52.461Z,23.68
2016-08-16T11:44:53.165Z,23.84
2016-08-16T11:45:52.478Z,23.94
2016-08-16T11:46:52.487Z,24.16
2016-08-16T11:47:52.482Z,24.27
2016-08-16T11:48:52.478Z,24.35
2016-08-16T11:49:53.179Z,24.49
2016-08-16T11:50:52.489Z,24.61
2016-08-16T11:52:05.229Z,24.73
2016-08-16T11:52:52.492Z,24.73
2016-08-16T11:53:59.452Z,24.65
2016-08-16T11:54:52.518Z,24.52
2016-08-16T11:55:52.541Z,24.25
2016-08-16T11:56:52.521Z,23.95
2016-08-16T11:57:54.037Z,23.69
2016-08-16T11:58:58.786Z,23.42
2016-08-16T11:59:52.523Z,23.33
2016-08-16T12:00:52.525Z,23.22
2016-08-16T12:01:52.523Z,23.1
2016-08-16T12:02:53.895Z,22.98
2016-08-16T12:04:06.034Z,23.09
2016-08-16T12:04:54.467Z,23.23
2016-08-16T12:05:53.045Z,23.32
2016-08-16T12:06:53.373Z,23.55
2016-08-16T12:07:52.723Z,23.78
2016-08-16T12:08:52.547Z,23.98
2016-08-16T12:09:52.554Z,24.06
2016-08-16T12:10:52.553Z,24.31
2016-08-16T12:11:54.089Z,24.47
2016-08-16T12:12:53.629Z,24.57
2016-08-16T12:13:54.182Z,24.68
2016-08-16T12:15:00.306Z,24.61
2016-08-16T12:15:54.100Z,24.62
2016-08-16T12:17:05.950Z,24.49
2016-08-16T12:18:07.551Z,24.5
2016-08-16T12:18:52.593Z,24.49
2016-08-16T12:19:52.594Z,24.58
2016-08-16T12:20:52.602Z,24.73
2016-08-16T12:21:52.600Z,24.81
2016-08-16T12:22:52.606Z,24.76
2016-08-16T12:23:52.616Z,24.8
2016-08-16T12:24:52.620Z,24.83
2016-08-16T12:25:52.620Z,24.81
2016-08-16T12:26:52.631Z,25
2016-08-16T12:27:52.624Z,25.03
2016-08-16T12:28:52.632Z,25.24
2016-08-16T12:30:06.069Z,25.36
2016-08-16T12:30:52.649Z,25.36
2016-08-16T12:31:52.667Z,25.36
2016-08-16T12:32:52.646Z,25.39
2016-08-16T12:33:52.667Z,25.35
2016-08-16T12:34:52.664Z,25.47
2016-08-16T12:35:52.672Z,25.6
2016-08-16T12:36:52.667Z,25.72
2016-08-16T12:37:53.382Z,25.76
2016-08-16T12:38:52.694Z,25.91
2016-08-16T12:39:52.686Z,26.05
2016-08-16T12:40:52.691Z,25.87
2016-08-16T12:41:52.889Z,25.87
2016-08-16T12:42:53.001Z,25.72
2016-08-16T12:43:52.910Z,25.69
2016-08-16T12:44:53.376Z,25.7
2016-08-16T12:45:53.272Z,25.73
2016-08-16T12:46:53.024Z,25.92
2016-08-16T12:47:56.025Z,26.1
2016-08-16T12:48:52.731Z,26.3
2016-08-16T12:49:52.742Z,26.51
2016-08-16T12:50:55.710Z,26.69
2016-08-16T12:51:53.104Z,26.77
2016-08-16T12:52:55.789Z,26.81
2016-08-16T12:53:52.762Z,26.65
2016-08-16T12:54:52.761Z,26.55
2016-08-16T12:55:52.770Z,26.47
2016-08-16T12:56:52.974Z,26.39
2016-08-16T12:57:52.782Z,26.39
2016-08-16T12:58:52.799Z,26.17
2016-08-16T13:00:05.534Z,26.02
2016-08-16T13:00:52.793Z,26.02
2016-08-16T13:01:52.802Z,26.09
2016-08-16T13:02:52.808Z,25.9
2016-08-16T13:03:52.811Z,25.99
2016-08-16T13:04:52.819Z,26.12
2016-08-16T13:05:56.671Z,26.23
2016-08-16T13:06:52.826Z,26.35
2016-08-16T13:07:52.849Z,26.45
2016-08-16T13:08:52.845Z,26.6
2016-08-16T13:09:52.852Z,26.62
2016-08-16T13:10:52.853Z,26.45
2016-08-16T13:11:52.867Z,26.3
2016-08-16T13:12:52.867Z,26.02
2016-08-16T13:13:52.873Z,25.98
2016-08-16T13:14:52.874Z,25.8
2016-08-16T13:15:52.894Z,25.85
2016-08-16T13:16:52.889Z,25.97
2016-08-16T13:17:52.904Z,25.9
2016-08-16T13:18:53.108Z,25.77
2016-08-16T13:19:52.908Z,25.67
2016-08-16T13:20:53.512Z,25.75
2016-08-16T13:21:54.435Z,25.7
2016-08-16T13:22:55.610Z,25.67
2016-08-16T13:23:55.969Z,25.75
2016-08-16T13:24:52.947Z,25.82
2016-08-16T13:25:53.434Z,25.8
2016-08-16T13:26:52.944Z,25.83
2016-08-16T13:27:52.952Z,25.88